Time;durP1;ratioP1;P1;durP2;ratioP2;P2;SDS_P1;SDS_P2;PMS_P1;PMS_P2;Temp;Humidity;BMP_temperature;BMP_pressure;BME280_temperature;BME280_humidity;BME280_pressure;Samples;Min_cycle;Max_cycle;Signal;HPM_P1;HPM_P2
2022/08/16 00:00:41;;;;;;;23.75;16.02;;;;;;;20.02;100.00;99726.38;5200450;28;20475;-73
2022/08/16 00:03:12;;;;;;;17.83;14.80;;;;;;;19.92;100.00;99719.34;5200424;28;20505;-73
2022/08/16 00:05:43;;;;;;;19.92;15.07;;;;;;;19.80;100.00;99715.09;5201050;28;20026;-73
2022/08/16 00:08:14;;;;;;;24.08;15.65;;;;;;;19.81;100.00;99714.94;5203032;28;20374;-73
2022/08/16 00:10:44;;;;;;;19.63;15.35;;;;;;;19.73;100.00;99724.53;5203695;28;20075;-73
2022/08/16 00:13:15;;;;;;;21.17;15.63;;;;;;;19.63;100.00;99719.19;5204026;28;20025;-73
2022/08/16 00:15:47;;;;;;;23.13;16.23;;;;;;;19.54;100.00;99716.47;5203648;28;20029;-73
2022/08/16 00:18:18;;;;;;;20.95;16.38;;;;;;;19.52;100.00;99716.63;5198226;28;20022;-73
2022/08/16 00:20:48;;;;;;;20.20;16.50;;;;;;;19.58;100.00;99721.41;5201841;28;20536;-73
2022/08/16 00:23:19;;;;;;;21.77;16.00;;;;;;;19.51;100.00;99714.94;5203950;28;20108;-73
2022/08/16 00:25:49;;;;;;;22.95;16.77;;;;;;;19.56;100.00;99712.75;5203502;28;20037;-73
2022/08/16 00:28:20;;;;;;;28.20;16.65;;;;;;;19.47;100.00;99720.63;5202826;28;20025;-73
2022/08/16 00:30:51;;;;;;;23.55;16.40;;;;;;;19.39;100.00;99721.28;5195585;28;20472;-73
2022/08/16 00:33:21;;;;;;;26.92;16.20;;;;;;;19.46;100.00;99716.31;5200436;28;20163;-73
2022/08/16 00:35:51;;;;;;;22.35;16.27;;;;;;;19.59;100.00;99728.38;5200770;28;20030;-73
2022/08/16 00:38:22;;;;;;;20.42;14.98;;;;;;;19.55;100.00;99726.97;5202070;28;20036;-72
2022/08/16 00:40:53;;;;;;;20.08;15.68;;;;;;;19.50;100.00;99721.22;5203442;28;20304;-73
2022/08/16 00:43:34;;;;;;;18.40;14.63;;;;;;;19.49;100.00;99724.00;5202523;28;20110;-72
2022/08/16 00:46:10;;;;;;;21.73;15.32;;;;;;;19.46;100.00;99727.75;5203230;28;20026;-72
2022/08/16 00:48:43;;;;;;;20.85;15.70;;;;;;;19.45;100.00;99728.72;5202640;28;20025;-73
2022/08/16 00:51:15;;;;;;;22.23;15.60;;;;;;;19.48;100.00;99733.75;5203130;28;20430;-72
2022/08/16 00:53:47;;;;;;;18.73;15.23;;;;;;;19.53;100.00;99731.56;5202538;28;20034;-73
2022/08/16 00:56:23;;;;;;;22.67;15.32;;;;;;;19.53;100.00;99741.31;5199674;28;20454;-73
2022/08/16 00:58:53;;;;;;;18.77;15.13;;;;;;;19.48;100.00;99725.78;5200002;28;20048;-73
2022/08/16 01:01:24;;;;;;;21.33;14.55;;;;;;;19.36;100.00;99737.47;5203284;28;20026;-73
2022/08/16 01:03:54;;;;;;;17.70;14.55;;;;;;;19.35;100.00;99742.88;5202142;28;20108;-73
2022/08/16 01:06:25;;;;;;;19.33;14.57;;;;;;;19.34;100.00;99734.09;5202443;28;20033;-73
2022/08/16 01:08:57;;;;;;;21.45;14.10;;;;;;;19.28;100.00;99739.91;5202184;28;20029;-73
2022/08/16 01:11:28;;;;;;;19.23;14.25;;;;;;;19.15;100.00;99739.25;5203113;28;20052;-73
2022/08/16 01:14:06;;;;;;;18.45;13.85;;;;;;;19.20;100.00;99731.78;5202666;28;20052;-72
2022/08/16 01:16:37;;;;;;;20.23;15.10;;;;;;;19.12;100.00;99739.47;5201554;28;20027;-73
2022/08/16 01:19:13;;;;;;;19.63;14.65;;;;;;;19.15;100.00;99747.19;5201672;28;20033;-72
2022/08/16 01:22:15;;;;;;;18.92;14.40;;;;;;;19.10;100.00;99749.34;5202678;28;20372;-73
2022/08/16 01:24:50;;;;;;;19.20;14.07;;;;;;;19.02;100.00;99745.66;5203434;28;20076;-73
2022/08/16 01:27:27;;;;;;;15.35;12.93;;;;;;;19.15;100.00;99747.19;5199000;28;20334;-73
2022/08/16 01:30:04;;;;;;;17.75;12.27;;;;;;;19.28;100.00;99744.38;5202334;28;20037;-73
2022/08/16 01:32:37;;;;;;;16.58;13.57;;;;;;;19.07;100.00;99746.97;5201778;28;20033;-73
2022/08/16 01:35:18;;;;;;;17.60;12.68;;;;;;;19.15;100.00;99746.34;5202828;28;20079;-73
2022/08/16 01:37:52;;;;;;;17.85;13.35;;;;;;;19.13;100.00;99749.09;5197511;28;20033;-73
2022/08/16 01:40:28;;;;;;;18.83;13.18;;;;;;;19.13;100.00;99746.44;5202329;28;20603;-72
2022/08/16 01:42:58;;;;;;;16.52;12.75;;;;;;;19.03;100.00;99747.34;5202124;28;20091;-73
2022/08/16 01:45:28;;;;;;;22.02;13.65;;;;;;;18.97;100.00;99748.69;5201357;28;20017;-72
2022/08/16 01:47:59;;;;;;;17.77;14.02;;;;;;;18.89;100.00;99752.94;5202338;28;20114;-71
2022/08/16 01:50:30;;;;;;;15.65;12.73;;;;;;;18.89;100.00;99753.78;5201615;28;20140;-72
2022/08/16 01:53:01;;;;;;;17.30;12.80;;;;;;;19.05;100.00;99748.06;5201522;28;20399;-72
2022/08/16 01:55:31;;;;;;;17.73;12.80;;;;;;;18.89;100.00;99747.63;5200156;28;20021;-72
2022/08/16 01:58:02;;;;;;;17.77;12.10;;;;;;;18.87;100.00;99763.69;5200442;28;20028;-72
2022/08/16 02:00:32;;;;;;;21.10;12.70;;;;;;;18.73;100.00;99764.94;5200963;28;20152;-73
2022/08/16 02:03:03;;;;;;;17.13;12.85;;;;;;;18.64;100.00;99758.56;5201442;28;20083;-72
2022/08/16 02:05:33;;;;;;;18.23;12.63;;;;;;;18.67;100.00;99757.50;5201602;28;20030;-72
2022/08/16 02:08:04;;;;;;;17.20;12.52;;;;;;;18.72;100.00;99765.91;5201410;28;20053;-72
2022/08/16 02:10:36;;;;;;;15.95;12.40;;;;;;;18.80;100.00;99766.94;5201383;28;20444;-73
2022/08/16 02:13:07;;;;;;;16.38;13.15;;;;;;;18.74;100.00;99772.75;5201259;28;20075;-73
2022/08/16 02:15:39;;;;;;;15.55;11.63;;;;;;;18.81;100.00;99772.13;5200998;28;20037;-73
2022/08/16 02:18:10;;;;;;;16.45;11.90;;;;;;;18.84;100.00;99776.31;5200874;28;20025;-72
2022/08/16 02:20:45;;;;;;;16.13;12.05;;;;;;;18.83;100.00;99770.19;5200802;28;20372;-73
2022/08/16 02:23:17;;;;;;;17.48;11.60;;;;;;;18.87;100.00;99771.63;5201613;28;20300;-73
2022/08/16 02:25:47;;;;;;;14.18;11.40;;;;;;;19.07;100.00;99768.16;5198280;28;20032;-73
2022/08/16 02:28:19;;;;;;;15.65;11.88;;;;;;;19.01;100.00;99771.31;5200100;28;20029;-73
2022/08/16 02:30:51;;;;;;;13.90;10.10;;;;;;;19.13;100.00;99761.53;5200705;28;20091;-73
2022/08/16 02:33:23;;;;;;;15.27;11.80;;;;;;;19.00;100.00;99761.72;5200999;28;20056;-73
2022/08/16 02:35:53;;;;;;;19.60;12.52;;;;;;;19.04;100.00;99767.56;5200346;28;20124;-73
2022/08/16 02:38:25;;;;;;;15.32;11.98;;;;;;;18.88;100.00;99768.00;5199886;28;20116;-73
2022/08/16 02:40:56;;;;;;;15.75;11.95;;;;;;;18.96;100.00;99764.72;5201018;28;20041;-73
2022/08/16 02:43:30;;;;;;;16.00;12.13;;;;;;;18.88;100.00;99760.06;5200634;28;20120;-73
2022/08/16 02:46:02;;;;;;;14.50;11.13;;;;;;;18.93;100.00;99760.50;5200529;28;20025;-73
2022/08/16 02:48:32;;;;;;;16.50;11.40;;;;;;;19.00;100.00;99768.78;5199162;28;20033;-73
2022/08/16 02:51:04;;;;;;;13.60;11.55;;;;;;;18.99;100.00;99770.63;5199722;28;20368;-73
2022/08/16 02:53:36;;;;;;;12.85;10.68;;;;;;;19.02;100.00;99759.75;5200163;28;20029;-72
2022/08/16 02:56:08;;;;;;;13.13;10.93;;;;;;;19.04;100.00;99760.47;5200755;28;20179;-72
2022/08/16 02:58:38;;;;;;;13.93;10.95;;;;;;;19.05;100.00;99753.34;5199267;28;20128;-73
2022/08/16 03:01:09;;;;;;;12.85;10.13;;;;;;;19.11;100.00;99763.47;5200700;28;20463;-73
2022/08/16 03:03:39;;;;;;;12.65;10.45;;;;;;;18.95;100.00;99757.75;5200344;28;20033;-73
2022/08/16 03:06:10;;;;;;;14.57;10.93;;;;;;;18.87;100.00;99763.69;5199049;28;20418;-73
2022/08/16 03:08:40;;;;;;;15.00;10.85;;;;;;;18.76;100.00;99763.72;5200297;28;20489;-73
2022/08/16 03:11:11;;;;;;;15.07;11.23;;;;;;;18.72;100.00;99764.06;5200819;28;20033;-73
2022/08/16 03:13:42;;;;;;;19.05;11.75;;;;;;;18.64;100.00;99760.38;5200427;28;20491;-73
2022/08/16 03:16:13;;;;;;;15.60;11.18;;;;;;;18.53;100.00;99763.06;5199613;28;20036;-72
2022/08/16 03:18:44;;;;;;;13.10;10.73;;;;;;;18.65;100.00;99760.25;5199845;28;20025;-73
2022/08/16 03:21:14;;;;;;;13.48;10.85;;;;;;;18.56;100.00;99770.75;5200083;28;20025;-73
2022/08/16 03:23:44;;;;;;;13.85;11.13;;;;;;;18.54;100.00;99767.38;5200057;28;20041;-72
2022/08/16 03:26:15;;;;;;;14.75;10.52;;;;;;;18.65;100.00;99764.72;5199803;28;20108;-73
2022/08/16 03:28:46;;;;;;;14.02;10.25;;;;;;;18.64;100.00;99770.94;5200025;28;20032;-72
2022/08/16 03:31:16;;;;;;;13.50;9.98;;;;;;;18.63;100.00;99766.63;5199840;28;20032;-72
2022/08/16 03:33:46;;;;;;;15.13;10.45;;;;;;;18.56;100.00;99765.47;5200229;28;20032;-72
2022/08/16 03:36:17;;;;;;;13.63;9.77;;;;;;;18.48;100.00;99776.66;5194982;28;20439;-72
2022/08/16 03:38:47;;;;;;;14.10;10.15;;;;;;;18.49;100.00;99777.53;5198868;28;20037;-73
2022/08/16 03:41:18;;;;;;;14.00;9.95;;;;;;;18.58;100.00;99768.81;5201420;28;20219;-73
2022/08/16 03:43:48;;;;;;;15.52;10.70;;;;;;;18.61;100.00;99774.72;5202479;28;20029;-72
2022/08/16 03:46:21;;;;;;;15.02;11.40;;;;;;;18.65;100.00;99762.91;5203915;28;20044;-73
2022/08/16 03:48:52;;;;;;;14.55;11.30;;;;;;;18.63;100.00;99771.91;5203649;28;20506;-73
2022/08/16 03:51:22;;;;;;;18.13;11.60;;;;;;;18.46;100.00;99775.94;5204265;28;20100;-72
2022/08/16 03:53:53;;;;;;;14.65;11.35;;;;;;;18.51;100.00;99778.22;5203975;28;20048;-73
2022/08/16 03:56:26;;;;;;;16.92;10.75;;;;;;;18.56;100.00;99765.47;5203553;28;20044;-72
2022/08/16 03:58:56;;;;;;;13.43;10.30;;;;;;;18.46;100.00;99775.09;5203477;28;20036;-73
2022/08/16 04:01:27;;;;;;;16.98;10.68;;;;;;;18.41;100.00;99771.97;5203880;28;20475;-73
2022/08/16 04:03:57;;;;;;;14.35;11.02;;;;;;;18.48;100.00;99781.94;5203392;28;20502;-72
2022/08/16 04:06:27;;;;;;;12.93;9.93;;;;;;;18.49;100.00;99780.16;5203105;28;20029;-72
2022/08/16 04:08:58;;;;;;;17.73;10.65;;;;;;;18.44;100.00;99784.97;5203093;28;20255;-73
2022/08/16 04:11:28;;;;;;;13.30;10.07;;;;;;;18.48;100.00;99783.78;5203625;28;20479;-73
2022/08/16 04:13:58;;;;;;;14.50;9.40;;;;;;;18.49;100.00;99780.97;5203830;28;20025;-73
2022/08/16 04:16:31;;;;;;;13.65;10.35;;;;;;;18.40;100.00;99780.88;5203232;28;20070;-73
2022/08/16 04:19:03;;;;;;;12.27;9.45;;;;;;;18.50;100.00;99787.13;5202661;28;20044;-73
2022/08/16 04:21:35;;;;;;;15.98;10.10;;;;;;;18.30;100.00;99777.28;5203739;28;20300;-73
2022/08/16 04:24:05;;;;;;;14.68;9.70;;;;;;;18.35;100.00;99785.72;5203219;28;20169;-73
2022/08/16 04:26:36;;;;;;;14.73;9.60;;;;;;;18.23;100.00;99784.00;5202764;28;20040;-72
2022/08/16 04:29:06;;;;;;;11.13;8.82;;;;;;;18.38;100.00;99783.63;5203554;28;20034;-73
2022/08/16 04:31:36;;;;;;;12.77;9.48;;;;;;;18.36;100.00;99792.69;5202904;28;20902;-73
2022/08/16 04:34:07;;;;;;;11.60;9.35;;;;;;;18.38;100.00;99788.94;5203305;28;20036;-73
2022/08/16 04:36:37;;;;;;;14.63;9.93;;;;;;;18.30;100.00;99779.91;5202325;28;20061;-72
2022/08/16 04:39:08;;;;;;;13.38;9.65;;;;;;;18.33;100.00;99785.00;5202959;28;20028;-73
2022/08/16 04:41:38;;;;;;;11.80;8.40;;;;;;;18.41;100.00;99788.72;5202385;28;20036;-73
2022/08/16 04:44:09;;;;;;;12.23;8.50;;;;;;;18.37;100.00;99791.72;5202695;28;20168;-73
2022/08/16 04:46:39;;;;;;;14.07;9.70;;;;;;;18.24;100.00;99799.75;5201123;28;20035;-73
2022/08/16 04:49:10;;;;;;;10.93;8.70;;;;;;;18.40;100.00;99802.06;5202263;28;20033;-73
2022/08/16 04:51:40;;;;;;;11.80;9.20;;;;;;;18.56;100.00;99810.44;5201915;28;20428;-73
2022/08/16 04:54:11;;;;;;;13.18;8.65;;;;;;;18.64;100.00;99805.38;5202544;28;20083;-73
2022/08/16 04:56:41;;;;;;;10.07;8.55;;;;;;;18.87;100.00;99814.00;5201772;28;20128;-73
2022/08/16 04:59:11;;;;;;;13.23;8.52;;;;;;;19.00;100.00;99816.47;5202476;28;20034;-73
2022/08/16 05:01:42;;;;;;;12.90;9.27;;;;;;;19.07;100.00;99813.19;5202523;28;20414;-73
2022/08/16 05:04:12;;;;;;;14.25;8.68;;;;;;;19.31;100.00;99811.19;5202450;28;20048;-73
2022/08/16 05:06:43;;;;;;;12.48;8.60;;;;;;;19.69;100.00;99818.56;5202365;28;20489;-73
2022/08/16 05:09:13;;;;;;;11.18;8.00;;;;;;;20.61;100.00;99820.16;5202193;28;20022;-73
2022/08/16 05:11:44;;;;;;;10.30;7.13;;;;;;;21.90;100.00;99808.19;5202805;28;20048;-73
2022/08/16 05:14:14;;;;;;;11.68;7.45;;;;;;;22.12;97.39;99821.16;5202321;28;20112;-73
2022/08/16 05:16:45;;;;;;;8.68;6.65;;;;;;;22.11;98.11;99822.13;5201264;28;20071;-73
2022/08/16 05:19:16;;;;;;;10.98;6.93;;;;;;;22.18;100.00;99823.22;5202306;28;20021;-73
2022/08/16 05:21:46;;;;;;;9.98;6.07;;;;;;;22.85;98.24;99820.09;5202789;28;20512;-73
2022/08/16 05:24:16;;;;;;;7.13;5.78;;;;;;;23.87;94.64;99820.41;5197734;28;20037;-73
2022/08/16 05:26:46;;;;;;;10.73;5.63;;;;;;;23.66;90.70;99827.91;5201718;28;20021;-73
2022/08/16 05:29:17;;;;;;;7.80;5.93;;;;;;;23.46;94.06;99826.41;5201662;28;20449;-73
2022/08/16 05:31:47;;;;;;;9.57;5.65;;;;;;;23.42;92.03;99825.06;5202650;28;20025;-73
2022/08/16 05:34:20;;;;;;;7.57;5.03;;;;;;;23.24;97.20;99826.91;5197966;28;20087;-73
2022/08/16 05:36:54;;;;;;;6.75;4.55;;;;;;;24.03;94.05;99827.72;5201195;28;20044;-73
2022/08/16 05:39:25;;;;;;;9.02;4.57;;;;;;;25.70;85.59;99828.25;5201751;28;20022;-73
2022/08/16 05:41:56;;;;;;;9.75;5.05;;;;;;;26.27;81.68;99835.22;5201587;28;20064;-73
2022/08/16 05:44:26;;;;;;;6.95;4.80;;;;;;;26.44;78.14;99838.69;5201408;28;20033;-73
2022/08/16 05:46:59;;;;;;;6.30;4.35;;;;;;;27.14;78.07;99828.66;5200723;28;20376;-73
2022/08/16 05:49:30;;;;;;;5.55;3.95;;;;;;;27.98;73.98;99834.72;5201611;28;20026;-73
2022/08/16 05:52:00;;;;;;;7.40;3.85;;;;;;;27.44;76.42;99838.53;5201200;28;20554;-73
2022/08/16 05:54:31;;;;;;;7.30;4.53;;;;;;;27.23;78.47;99835.66;5201527;28;20029;-73
2022/08/16 05:57:02;;;;;;;6.68;3.63;;;;;;;27.89;77.10;99849.28;5201172;28;20279;-73
2022/08/16 05:59:33;;;;;;;6.32;3.55;;;;;;;27.07;77.51;99859.06;5201398;28;20491;-73
2022/08/16 06:02:05;;;;;;;7.55;3.58;;;;;;;26.42;79.99;99862.16;5201125;28;20052;-73
2022/08/16 06:04:35;;;;;;;6.15;4.10;;;;;;;24.88;87.76;99864.06;5201017;28;20462;-73
2022/08/16 06:07:05;;;;;;;7.20;4.20;;;;;;;24.31;91.26;99864.78;5201010;28;20177;-72
2022/08/16 06:09:37;;;;;;;7.78;4.65;;;;;;;23.59;96.39;99858.88;5200002;28;20117;-73
2022/08/16 06:12:07;;;;;;;7.85;4.20;;;;;;;23.96;95.03;99862.22;5201654;28;20025;-73
2022/08/16 06:14:38;;;;;;;7.13;4.60;;;;;;;23.63;95.79;99867.41;5200949;28;20029;-73
2022/08/16 06:17:08;;;;;;;8.60;4.80;;;;;;;23.32;99.43;99860.78;5198279;28;20029;-73
2022/08/16 06:19:39;;;;;;;11.63;4.78;;;;;;;23.01;99.25;99873.59;5199201;28;20025;-73
2022/08/16 06:22:09;;;;;;;7.72;4.97;;;;;;;22.78;100.00;99872.34;5201540;28;20017;-72
2022/08/16 06:24:40;;;;;;;9.00;4.80;;;;;;;22.63;100.00;99869.47;5200718;28;20506;-72
2022/08/16 06:27:10;;;;;;;9.05;4.85;;;;;;;23.20;100.00;99870.00;5200361;28;20074;-73
2022/08/16 06:29:40;;;;;;;6.88;4.90;;;;;;;24.63;91.21;99870.31;5200846;28;20511;-73
2022/08/16 06:32:11;;;;;;;8.70;4.30;;;;;;;26.23;83.96;99857.19;5199906;28;20044;-73
2022/08/16 06:34:41;;;;;;;7.47;4.05;;;;;;;27.10;80.59;99864.09;5201386;28;20014;-73
2022/08/16 06:37:12;;;;;;;7.45;3.75;;;;;;;28.02;75.49;99862.94;5200333;28;20478;-73
2022/08/16 06:39:42;;;;;;;5.43;3.67;;;;;;;29.27;71.49;99864.50;5199140;28;20116;-73
2022/08/16 06:42:12;;;;;;;8.30;4.00;;;;;;;28.63;73.94;99870.69;5198498;28;20017;-73
2022/08/16 06:44:43;;;;;;;6.70;3.42;;;;;;;29.97;66.33;99868.09;5201334;28;20330;-73
2022/08/16 06:47:13;;;;;;;6.80;3.60;;;;;;;30.23;69.27;99881.81;5200833;28;20045;-73
2022/08/16 06:49:44;;;;;;;6.63;3.42;;;;;;;30.20;67.36;99872.25;5196659;28;20406;-72
2022/08/16 06:52:15;;;;;;;4.53;3.15;;;;;;;28.46;75.42;99879.97;5200424;28;20048;-73
2022/08/16 06:54:45;;;;;;;6.93;3.28;;;;;;;29.08;70.84;99889.34;5200471;28;20446;-71
2022/08/16 06:57:16;;;;;;;8.67;2.33;;;;;;;30.64;67.35;99888.13;5200079;28;20288;-70
2022/08/16 06:59:47;;;;;;;5.55;2.78;;;;;;;30.66;71.07;99883.38;5197540;28;20288;-70
2022/08/16 07:02:18;;;;;;;5.70;3.00;;;;;;;31.46;63.57;99890.56;5197844;28;20029;-70
2022/08/16 07:04:48;;;;;;;8.30;2.97;;;;;;;29.57;70.63;99898.41;5196865;28;20037;-71
2022/08/16 07:07:19;;;;;;;6.13;2.50;;;;;;;31.91;65.19;99892.56;5197468;28;20029;-71
2022/08/16 07:09:49;;;;;;;6.82;2.95;;;;;;;32.72;61.41;99894.84;5196936;28;20334;-71
2022/08/16 07:12:20;;;;;;;4.20;2.72;;;;;;;32.44;62.98;99897.78;5197695;28;20025;-71
2022/08/16 07:14:50;;;;;;;6.50;3.00;;;;;;;31.32;66.18;99897.81;5196277;28;20022;-71
2022/08/16 07:17:21;;;;;;;6.25;2.92;;;;;;;31.98;64.80;99896.94;5191899;28;20280;-71
2022/08/16 07:19:53;;;;;;;4.43;2.88;;;;;;;32.65;61.23;99894.81;5195322;28;20026;-71
2022/08/16 07:22:24;;;;;;;7.88;2.95;;;;;;;33.10;59.08;99886.56;5197589;28;20029;-71
2022/08/16 07:24:55;;;;;;;5.15;2.47;;;;;;;32.97;59.28;99893.91;5195277;28;20033;-71
2022/08/16 07:27:26;;;;;;;8.35;2.78;;;;;;;31.67;66.26;99896.69;5191693;28;20025;-71
2022/08/16 07:29:56;;;;;;;5.00;2.80;;;;;;;31.09;64.90;99891.91;5197300;28;20108;-71
2022/08/16 07:32:27;;;;;;;7.00;2.90;;;;;;;31.26;66.18;99898.66;5196357;28;20029;-71
2022/08/16 07:34:58;;;;;;;5.47;2.78;;;;;;;31.73;63.27;99889.63;5198139;28;20676;-71
2022/08/16 07:37:28;;;;;;;11.07;2.75;;;;;;;32.89;61.92;99888.72;5195191;28;20025;-71
2022/08/16 07:39:58;;;;;;;5.37;2.80;;;;;;;35.74;55.09;99888.06;5195964;28;20026;-71
2022/08/16 07:42:28;;;;;;;5.80;2.77;;;;;;;34.07;57.79;99889.75;5197511;28;20276;-71
2022/08/16 07:44:59;;;;;;;4.43;2.50;;;;;;;31.90;59.98;99901.72;5196838;28;20642;-71
2022/08/16 07:47:29;;;;;;;5.10;2.60;;;;;;;32.15;62.12;99891.94;5211417;22;20026;-74
2022/08/16 07:50:00;;;;;;;6.47;2.50;;;;;;;31.32;63.61;99903.22;5196418;28;20395;-75
2022/08/16 07:52:31;;;;;;;8.25;2.55;;;;;;;31.80;62.62;99902.13;5197059;28;20092;-75
2022/08/16 07:55:02;;;;;;;5.68;2.50;;;;;;;32.59;60.97;99902.94;5199631;28;20025;-76
2022/08/16 07:57:32;;;;;;;6.50;2.22;;;;;;;32.93;61.40;99903.50;5199434;28;20025;-76
2022/08/16 08:00:04;;;;;;;4.30;2.00;;;;;;;34.28;59.35;99913.81;5193983;28;20079;-74
2022/08/16 08:02:35;;;;;;;6.35;2.50;;;;;;;33.94;55.65;99909.69;5195914;28;20083;-76
2022/08/16 08:05:06;;;;;;;8.07;2.30;;;;;;;35.73;53.65;99902.72;5196060;28;20026;-74
2022/08/16 08:07:36;;;;;;;7.78;2.10;;;;;;;33.73;56.31;99904.63;5197212;28;20037;-76
2022/08/16 08:10:08;;;;;;;4.40;2.00;;;;;;;33.81;61.72;99908.97;5198735;28;20072;-76
2022/08/16 08:12:38;;;;;;;7.47;2.53;;;;;;;34.66;55.32;99909.88;5196989;28;20276;-76
2022/08/16 08:15:10;;;;;;;7.47;2.33;;;;;;;34.60;57.40;99915.38;5199504;28;20446;-76
2022/08/16 08:17:41;;;;;;;6.40;2.20;;;;;;;35.28;53.67;99907.72;5197639;28;20036;-76
2022/08/16 08:20:15;;;;;;;5.15;2.03;;;;;;;33.99;57.67;99914.44;5199120;28;20026;-73
2022/08/16 08:22:46;;;;;;;3.80;1.98;;;;;;;33.93;55.28;99920.75;5197663;28;20458;-76
2022/08/16 08:25:17;;;;;;;5.97;2.13;;;;;;;33.74;55.56;99917.13;5196638;28;20414;-76
2022/08/16 08:27:47;;;;;;;3.90;1.95;;;;;;;33.13;60.01;99918.63;5199228;28;20116;-76
2022/08/16 08:30:18;;;;;;;7.07;2.00;;;;;;;33.84;58.03;99919.38;5202639;28;20083;-76
2022/08/16 08:32:48;;;;;;;6.63;2.05;;;;;;;33.65;56.45;99925.72;5202317;28;20490;-76
2022/08/16 08:35:19;;;;;;;5.00;2.30;;;;;;;34.47;55.32;99910.91;5201947;28;20032;-76
2022/08/16 08:37:49;;;;;;;7.27;1.77;;;;;;;35.76;54.88;99916.69;5195455;28;20479;-76
2022/08/16 08:40:22;;;;;;;5.10;1.97;;;;;;;35.06;53.79;99909.25;5199713;28;20272;-75
2022/08/16 08:42:57;;;;;;;3.72;1.75;;;;;;;33.75;53.92;99912.53;5199577;28;20053;-76
2022/08/16 08:45:29;;;;;;;3.72;1.85;;;;;;;35.67;52.08;99918.13;5200520;28;20068;-75
2022/08/16 08:47:59;;;;;;;5.97;1.90;;;;;;;35.30;54.52;99911.03;5200755;28;20116;-76
2022/08/16 08:50:31;;;;;;;5.95;2.05;;;;;;;35.17;53.85;99904.97;5200816;28;20127;-76
2022/08/16 08:53:02;;;;;;;3.42;1.85;;;;;;;36.14;51.96;99913.63;5201283;28;20033;-76
2022/08/16 08:55:33;;;;;;;5.93;1.90;;;;;;;34.69;56.10;99917.59;5201605;28;20091;-75
2022/08/16 08:58:04;;;;;;;2.88;1.80;;;;;;;35.36;53.64;99914.75;5200676;28;20510;-76
2022/08/16 09:00:36;;;;;;;5.32;1.85;;;;;;;36.32;51.55;99917.06;5201950;28;20075;-76
2022/08/16 09:03:06;;;;;;;6.60;2.35;;;;;;;33.73;55.53;99920.91;5201484;28;20522;-75
2022/08/16 09:05:36;;;;;;;4.20;2.00;;;;;;;34.95;53.99;99916.47;5201129;28;20087;-76
2022/08/16 09:08:08;;;;;;;4.23;1.87;;;;;;;35.61;51.24;99918.97;5201095;28;20288;-75
2022/08/16 09:10:39;;;;;;;7.93;2.20;;;;;;;34.03;54.84;99921.09;5201504;28;20032;-76
2022/08/16 09:13:10;;;;;;;5.55;2.20;;;;;;;33.98;55.25;99926.38;5201709;28;20644;-75
2022/08/16 09:15:41;;;;;;;3.90;2.20;;;;;;;34.11;54.20;99923.53;5198181;28;20399;-76
2022/08/16 09:18:11;;;;;;;8.50;2.28;;;;;;;32.14;57.39;99915.47;5198969;28;20507;-76
2022/08/16 09:20:42;;;;;;;5.90;2.10;;;;;;;32.32;56.51;99912.97;5198304;28;20087;-76
2022/08/16 09:23:12;;;;;;;6.38;2.50;;;;;;;32.40;57.63;99922.75;5200945;28;20366;-75
2022/08/16 09:25:43;;;;;;;8.20;2.47;;;;;;;32.68;60.78;99923.31;5201330;28;20112;-76
2022/08/16 09:28:14;;;;;;;5.00;2.50;;;;;;;32.64;57.86;99919.38;5195759;28;20037;-76
2022/08/16 09:30:45;;;;;;;7.32;2.30;;;;;;;31.06;61.24;99919.28;5195732;28;20033;-75
2022/08/16 09:33:19;;;;;;;8.27;2.78;;;;;;;32.59;58.80;99906.47;5200939;28;20288;-75
2022/08/16 09:35:49;;;;;;;6.03;2.40;;;;;;;32.17;57.63;99904.25;5197260;28;20017;-75
2022/08/16 09:38:23;;;;;;;8.25;2.45;;;;;;;31.74;59.08;99911.03;5199110;28;20044;-75
2022/08/16 09:40:55;;;;;;;4.07;2.10;;;;;;;31.38;62.04;99915.91;5200912;28;20564;-75
2022/08/16 09:43:26;;;;;;;6.82;1.88;;;;;;;31.24;59.60;99916.94;5199284;28;20044;-75
2022/08/16 09:45:56;;;;;;;2.75;1.77;;;;;;;30.99;60.42;99921.13;5201181;28;20529;-74
2022/08/16 09:48:27;;;;;;;3.77;1.80;;;;;;;30.91;58.70;99915.91;5199911;28;20045;-75
2022/08/16 09:50:57;;;;;;;4.90;2.00;;;;;;;30.75;60.54;99910.00;5199667;28;20334;-75
2022/08/16 09:53:29;;;;;;;6.30;2.00;;;;;;;30.83;61.15;99914.41;5200263;28;20123;-75
2022/08/16 09:56:00;;;;;;;4.18;1.83;;;;;;;30.45;64.08;99915.81;5200221;28;20479;-74
2022/08/16 09:58:31;;;;;;;4.78;1.88;;;;;;;30.50;60.50;99913.34;5201420;28;20037;-75
2022/08/16 10:01:01;;;;;;;4.00;1.92;;;;;;;29.99;61.21;99914.56;5200423;28;20494;-75
2022/08/16 10:03:31;;;;;;;3.53;1.70;;;;;;;30.54;61.46;99917.31;5200041;28;20029;-75
2022/08/16 10:06:02;;;;;;;3.10;1.90;;;;;;;30.23;61.39;99909.63;5200666;28;20029;-74
2022/08/16 10:08:32;;;;;;;4.57;1.77;;;;;;;30.63;62.91;99910.75;5198394;28;20273;-74
2022/08/16 10:13:51;;;;;;;3.72;1.75;;;;;;;30.42;63.06;99911.63;5196708;28;20175;-75
2022/08/16 10:16:22;;;;;;;4.93;1.65;;;;;;;30.30;64.63;99909.66;5200182;28;20108;-74
2022/08/16 10:18:53;;;;;;;5.68;1.90;;;;;;;30.14;64.53;99908.09;5198059;28;20041;-75
2022/08/16 10:21:23;;;;;;;3.33;1.73;;;;;;;30.22;61.40;99912.53;5199399;28;20032;-75
2022/08/16 10:23:54;;;;;;;4.28;1.60;;;;;;;30.29;62.58;99910.69;5199567;28;20041;-75
2022/08/16 10:26:24;;;;;;;4.55;1.70;;;;;;;29.23;62.79;99911.69;5199264;28;20656;-75
2022/08/16 10:28:55;;;;;;;2.85;1.52;;;;;;;29.41;62.78;99912.91;5199092;28;20446;-72
2022/08/16 10:31:25;;;;;;;4.40;1.90;;;;;;;28.63;63.82;99908.34;5195835;28;20032;-75
2022/08/16 10:33:55;;;;;;;6.22;1.70;;;;;;;29.53;63.33;99900.66;5199870;28;20022;-76
2022/08/16 10:36:27;;;;;;;3.72;1.80;;;;;;;30.23;60.28;99903.41;5193539;28;20075;-75
2022/08/16 10:38:57;;;;;;;6.28;1.83;;;;;;;30.22;60.79;99907.94;5198268;28;20479;-75
2022/08/16 10:41:28;;;;;;;3.42;1.50;;;;;;;30.26;58.59;99905.72;5197934;28;20040;-75
2022/08/16 10:43:59;;;;;;;3.67;1.83;;;;;;;29.77;59.51;99908.34;5199225;28;20089;-75
2022/08/16 10:46:29;;;;;;;4.80;1.73;;;;;;;30.07;63.97;99907.19;5196598;28;20132;-75
2022/08/16 10:49:00;;;;;;;3.65;1.60;;;;;;;30.09;63.55;99912.41;5196344;28;20040;-75
2022/08/16 10:51:31;;;;;;;3.38;1.80;;;;;;;29.99;60.54;99920.81;5198340;28;20037;-75
2022/08/16 10:54:01;;;;;;;7.32;1.77;;;;;;;30.16;62.42;99906.03;5197604;28;20037;-74
2022/08/16 10:56:32;;;;;;;3.20;1.70;;;;;;;30.59;61.63;99912.19;5198491;28;20514;-75
2022/08/16 10:59:02;;;;;;;3.95;1.60;;;;;;;29.97;60.36;99919.31;5198573;28;20475;-73
2022/08/16 11:01:33;;;;;;;6.53;1.67;;;;;;;29.67;61.93;99912.38;5199489;28;20120;-73
2022/08/16 11:04:03;;;;;;;5.53;1.67;;;;;;;29.47;62.70;99919.44;5199092;28;20079;-75
2022/08/16 11:06:33;;;;;;;7.57;4.40;;;;;;;29.09;62.60;99918.72;5198223;28;20117;-75
2022/08/16 11:09:04;;;;;;;7.47;2.20;;;;;;;29.00;60.30;99914.50;5196410;28;20025;-75
2022/08/16 11:11:34;;;;;;;4.38;1.80;;;;;;;28.83;63.15;99912.16;5199041;28;20183;-75
2022/08/16 11:14:05;;;;;;;7.40;2.03;;;;;;;28.64;61.67;99911.88;5198828;28;20021;-75
2022/08/16 11:16:36;;;;;;;3.20;1.80;;;;;;;28.78;64.32;99912.72;5196455;28;20280;-75
2022/08/16 11:19:07;;;;;;;5.65;2.00;;;;;;;29.14;64.29;99910.94;5196928;28;20030;-75
2022/08/16 11:21:37;;;;;;;3.70;1.92;;;;;;;29.05;60.92;99912.06;5197599;28;20037;-75
2022/08/16 11:24:07;;;;;;;3.72;1.70;;;;;;;29.33;62.18;99914.88;5197737;28;20415;-75
2022/08/16 11:26:38;;;;;;;3.85;1.73;;;;;;;29.38;64.00;99915.16;5197553;28;20551;-76
2022/08/16 11:29:09;;;;;;;3.78;1.70;;;;;;;29.88;63.35;99909.72;5193963;28;20434;-76
2022/08/16 11:31:39;;;;;;;4.25;1.95;;;;;;;29.97;61.85;99914.78;5197750;28;20045;-74
2022/08/16 11:34:10;;;;;;;2.58;1.73;;;;;;;30.39;60.67;99914.72;5196873;28;20033;-75
2022/08/16 11:36:41;;;;;;;6.13;2.17;;;;;;;29.76;59.92;99909.38;5196633;28;20033;-75
2022/08/16 11:39:11;;;;;;;4.20;1.92;;;;;;;29.83;65.25;99912.13;5195853;28;20506;-75
2022/08/16 11:41:42;;;;;;;3.50;1.90;;;;;;;29.43;63.92;99924.31;5196200;28;20128;-74